Terminal Aerodrome Forecast
Issued by NWS

Home | Current Version | Previous Version | Text Only | Print | Product List | Glossary On
Versions: 1 2 3 4 5 6 7 8 9 10 11 12 13 14 15
000
FTUS41 KGYX 171120
TAFLEB
TAF
KLEB 171120Z 1712/1812 VRB03KT P6SM OVC200
     FM171900 12005KT P6SM SCT050 OVC120
     FM172200 15005KT 2SM -SN BR OVC015
     FM180100 15004KT 1SM -SN BR OVC008=

USA.gov is the U.S. government's official web portal to all federal, state and local government web resources and services.